createdAt,value
2018-05-15T00:17:35.985Z,4.13
2018-05-15T00:20:03.467Z,3.43
2018-05-15T00:22:30.978Z,3.93
2018-05-15T00:24:59.284Z,4.10
2018-05-15T00:27:26.808Z,3.83
2018-05-15T00:29:54.342Z,4.27
2018-05-15T00:32:21.886Z,3.60
2018-05-15T00:34:49.414Z,3.90
2018-05-15T00:37:16.974Z,3.87
2018-05-15T00:39:45.264Z,3.40
2018-05-15T00:42:12.792Z,3.10
2018-05-15T00:44:41.082Z,3.27
2018-05-15T00:47:09.379Z,3.13
2018-05-15T00:49:36.912Z,3.40
2018-05-15T00:52:05.179Z,3.40
2018-05-15T00:54:33.482Z,3.33
2018-05-15T00:57:01.065Z,3.47
2018-05-15T00:59:29.311Z,3.20
2018-05-15T01:01:56.831Z,3.23
2018-05-15T01:04:24.387Z,3.37
2018-05-15T01:06:51.935Z,3.50
2018-05-15T01:09:19.556Z,3.13
2018-05-15T01:11:47.166Z,3.40
2018-05-15T01:14:20.575Z,2.80
2018-05-15T01:16:48.981Z,3.67
2018-05-15T01:19:16.648Z,3.83
2018-05-15T01:21:44.280Z,3.77
2018-05-15T01:24:12.635Z,3.47
2018-05-15T01:26:40.222Z,4.03
2018-05-15T01:29:08.567Z,3.83
2018-05-15T01:31:36.199Z,3.53
2018-05-15T01:34:03.782Z,3.73
2018-05-15T01:36:31.399Z,3.70
2018-05-15T01:38:59.007Z,3.70
2018-05-15T01:41:26.647Z,3.70
2018-05-15T01:43:54.270Z,3.57
2018-05-15T01:46:22.892Z,3.57
2018-05-15T01:48:50.511Z,3.50
2018-05-15T01:51:18.914Z,3.90
2018-05-15T01:53:46.506Z,3.73
2018-05-15T01:56:14.102Z,3.50
2018-05-15T01:58:41.738Z,3.70
2018-05-15T02:01:09.386Z,4.40
2018-05-15T02:03:36.961Z,3.77
2018-05-15T02:06:04.578Z,3.80
2018-05-15T02:08:32.815Z,3.63
2018-05-15T02:11:00.526Z,4.00
2018-05-15T02:13:28.158Z,4.60
2018-05-15T02:15:56.512Z,3.83
2018-05-15T02:18:24.953Z,3.50
2018-05-15T02:20:52.554Z,3.73
2018-05-15T02:23:20.152Z,3.70
2018-05-15T02:25:47.748Z,4.13
2018-05-15T02:28:15.334Z,4.10
2018-05-15T02:30:42.981Z,3.60
2018-05-15T02:33:10.596Z,3.87
2018-05-15T02:35:38.964Z,3.80
2018-05-15T02:38:07.352Z,3.70
2018-05-15T02:40:34.933Z,4.13
2018-05-15T02:43:02.525Z,3.17
2018-05-15T02:45:30.149Z,3.30
2018-05-15T02:47:57.771Z,3.60
2018-05-15T02:50:25.375Z,3.70
2018-05-15T02:52:53.009Z,4.20
2018-05-15T02:55:21.391Z,4.27
2018-05-15T02:57:49.754Z,4.07
2018-05-15T03:00:17.369Z,3.70
2018-05-15T03:02:44.984Z,3.70
2018-05-15T03:05:13.346Z,4.20
2018-05-15T03:07:40.932Z,3.87
2018-05-15T03:10:09.281Z,3.90
2018-05-15T03:12:36.955Z,3.40
2018-05-15T03:15:05.346Z,3.90
2018-05-15T03:17:33.707Z,3.67
2018-05-15T03:20:01.333Z,3.80
2018-05-15T03:22:28.897Z,3.80
2018-05-15T03:24:56.536Z,3.97
2018-05-15T03:27:24.150Z,3.27
2018-05-15T03:29:51.757Z,3.60
2018-05-15T03:32:19.414Z,3.83
2018-05-15T03:34:47.022Z,4.13
2018-05-15T03:37:16.109Z,4.20
2018-05-15T03:39:43.716Z,3.30
2018-05-15T03:42:11.296Z,4.00
2018-05-15T03:44:38.920Z,4.30
2018-05-15T03:47:08.304Z,4.10
2018-05-15T03:49:35.884Z,3.90
2018-05-15T03:52:04.276Z,4.20
2018-05-15T03:54:32.618Z,4.37
2018-05-15T03:57:00.276Z,4.10
2018-05-15T03:59:28.680Z,4.60
2018-05-15T04:02:08.842Z,4.40
2018-05-15T04:04:49.024Z,4.23
2018-05-15T04:07:28.451Z,4.50
2018-05-15T04:09:56.100Z,4.83
2018-05-15T04:12:24.576Z,4.33
2018-05-15T04:14:52.954Z,4.50
2018-05-15T04:17:21.347Z,4.70
2018-05-15T04:19:48.970Z,4.57
2018-05-15T04:22:16.649Z,4.37
2018-05-15T04:24:44.276Z,4.17
2018-05-15T04:27:11.900Z,4.50
2018-05-15T04:29:39.512Z,4.23
2018-05-15T04:32:07.120Z,4.90
2018-05-15T04:34:34.903Z,4.53
2018-05-15T04:37:02.584Z,4.80
2018-05-15T04:39:30.173Z,4.40
2018-05-15T04:41:57.760Z,4.17
2018-05-15T04:44:25.355Z,4.47
2018-05-15T04:46:52.925Z,4.53
2018-05-15T04:49:20.519Z,4.60
2018-05-15T04:51:48.864Z,4.80
2018-05-15T04:54:16.474Z,4.33
2018-05-15T04:56:44.819Z,5.07
2018-05-15T04:59:12.412Z,5.03
2018-05-15T05:01:40.023Z,4.80
2018-05-15T05:04:07.617Z,4.80
2018-05-15T05:06:35.996Z,5.03
2018-05-15T05:09:03.617Z,4.90
2018-05-15T05:11:31.207Z,5.10
2018-05-15T05:13:58.831Z,5.20
2018-05-15T05:16:26.446Z,4.97
2018-05-15T05:18:55.210Z,5.10
2018-05-15T05:21:22.834Z,4.73
2018-05-15T05:23:50.449Z,4.97
2018-05-15T05:26:18.817Z,5.10
2018-05-15T05:28:46.428Z,4.53
2018-05-15T05:31:14.111Z,5.10
2018-05-15T05:33:41.722Z,4.40
2018-05-15T05:36:10.109Z,4.63
2018-05-15T05:38:38.763Z,4.97
2018-05-15T05:41:06.399Z,4.30
2018-05-15T05:43:33.971Z,4.90
2018-05-15T05:46:01.595Z,5.33
2018-05-15T05:48:29.253Z,4.67
2018-05-15T05:50:56.875Z,4.80
2018-05-15T05:53:24.483Z,4.80
2018-05-15T05:55:52.282Z,4.60
2018-05-15T05:58:19.908Z,4.50
2018-05-15T06:00:47.513Z,4.40
2018-05-15T06:03:15.118Z,4.43
2018-05-15T06:05:42.683Z,5.10
2018-05-15T06:08:10.268Z,4.70
2018-05-15T06:10:37.843Z,5.00
2018-05-15T06:13:05.460Z,4.17
2018-05-15T06:15:33.067Z,5.00
2018-05-15T06:18:00.658Z,4.10
2018-05-15T06:20:28.259Z,3.90
2018-05-15T06:22:58.839Z,4.73
2018-05-15T06:25:26.434Z,4.57
2018-05-15T06:27:54.060Z,4.60
2018-05-15T06:30:22.474Z,4.47
2018-05-15T06:32:50.055Z,4.60
2018-05-15T06:35:17.663Z,4.77
2018-05-15T06:37:47.975Z,4.20
2018-05-15T06:40:15.590Z,4.43
2018-05-15T06:42:43.227Z,4.20
2018-05-15T06:45:11.617Z,4.30
2018-05-15T06:47:40.004Z,4.60
2018-05-15T06:50:07.619Z,4.37
2018-05-15T06:52:36.193Z,4.30
2018-05-15T06:55:03.851Z,4.33
2018-05-15T06:57:31.484Z,4.13
2018-05-15T06:59:59.076Z,4.00
2018-05-15T07:02:26.702Z,3.90
2018-05-15T07:04:54.331Z,4.00
2018-05-15T07:07:22.685Z,4.00
2018-05-15T07:09:50.237Z,3.70
2018-05-15T07:12:17.834Z,3.97
2018-05-15T07:14:46.257Z,4.40
2018-05-15T07:17:13.831Z,3.77
2018-05-15T07:19:41.417Z,3.57
2018-05-15T07:22:09.990Z,3.83
2018-05-15T07:24:37.639Z,3.60
2018-05-15T07:27:05.241Z,3.03
2018-05-15T07:29:33.646Z,3.10
2018-05-15T07:32:01.269Z,3.43
2018-05-15T07:34:29.670Z,3.53
2018-05-15T07:36:57.264Z,3.10
2018-05-15T07:39:24.870Z,3.10
2018-05-15T07:41:53.307Z,3.17
2018-05-15T07:44:31.316Z,2.97
2018-05-15T07:46:58.926Z,3.00
2018-05-15T07:49:27.296Z,3.10
2018-05-15T07:51:55.682Z,2.70
2018-05-15T07:54:24.056Z,2.53
2018-05-15T07:56:52.436Z,3.27
2018-05-15T07:59:20.849Z,2.37
2018-05-15T08:01:48.457Z,2.73
2018-05-15T08:04:16.058Z,3.07
2018-05-15T08:06:49.514Z,2.40
2018-05-15T08:09:17.062Z,2.70
2018-05-15T08:11:44.718Z,2.70
2018-05-15T08:14:12.364Z,2.70
2018-05-15T08:16:39.993Z,2.70
2018-05-15T08:19:07.597Z,2.97
2018-05-15T08:21:36.000Z,2.67
2018-05-15T08:24:03.600Z,2.57
2018-05-15T08:26:31.192Z,2.73
2018-05-15T08:28:58.801Z,2.77
2018-05-15T08:31:27.203Z,3.20
2018-05-15T08:33:54.828Z,2.70
2018-05-15T08:36:22.452Z,3.10
2018-05-15T08:38:50.078Z,2.93
2018-05-15T08:41:17.636Z,2.47
2018-05-15T08:43:45.264Z,2.50
2018-05-15T08:46:12.892Z,2.33
2018-05-15T08:48:40.468Z,2.50
2018-05-15T08:51:08.046Z,2.43
2018-05-15T08:53:35.652Z,2.30
2018-05-15T08:56:03.284Z,2.50
2018-05-15T08:58:31.640Z,2.50
2018-05-15T09:00:59.272Z,2.10
2018-05-15T09:03:26.848Z,2.53
2018-05-15T09:05:54.436Z,2.23
2018-05-15T09:08:22.769Z,1.90
2018-05-15T09:10:50.367Z,2.30
2018-05-15T09:13:17.983Z,2.07
2018-05-15T09:15:45.605Z,2.20
2018-05-15T09:18:14.107Z,2.30
2018-05-15T09:20:41.631Z,2.50
2018-05-15T09:23:10.030Z,1.77
2018-05-15T09:25:38.388Z,2.60
2018-05-15T09:28:05.965Z,2.43
2018-05-15T09:30:34.735Z,2.57
2018-05-15T09:33:02.461Z,2.50
2018-05-15T09:35:30.023Z,2.60
2018-05-15T09:37:57.626Z,2.53
2018-05-15T09:40:26.020Z,2.70
2018-05-15T09:42:54.384Z,2.40
2018-05-15T09:45:22.102Z,2.43
2018-05-15T09:47:49.734Z,2.30
2018-05-15T09:50:17.368Z,2.30
2018-05-15T09:52:45.733Z,2.27
2018-05-15T09:55:13.338Z,2.40
2018-05-15T09:57:40.906Z,2.27
2018-05-15T10:00:08.518Z,2.33
2018-05-15T10:02:36.108Z,2.37
2018-05-15T10:05:04.484Z,2.40
2018-05-15T10:07:32.889Z,1.87
2018-05-15T10:10:00.508Z,2.00
2018-05-15T10:12:28.142Z,2.43
2018-05-15T10:14:55.740Z,2.10
2018-05-15T10:17:24.097Z,1.90
2018-05-15T10:19:51.759Z,2.20
2018-05-15T10:22:19.316Z,1.90
2018-05-15T10:24:46.892Z,2.30
2018-05-15T10:27:15.276Z,2.60
2018-05-15T10:29:43.656Z,2.30
2018-05-15T10:32:12.050Z,2.83
2018-05-15T10:34:40.398Z,2.30
2018-05-15T10:37:08.014Z,2.30
2018-05-15T10:39:35.586Z,2.60
2018-05-15T10:42:03.190Z,2.60
2018-05-15T10:44:31.582Z,2.53
2018-05-15T10:46:59.944Z,2.60
2018-05-15T10:49:28.340Z,2.90
2018-05-15T10:51:56.714Z,2.23
2018-05-15T10:54:24.336Z,2.50
2018-05-15T10:56:51.888Z,2.37
2018-05-15T10:59:19.568Z,2.60
2018-05-15T11:01:47.061Z,2.57
2018-05-15T11:04:15.452Z,2.50
2018-05-15T11:06:43.079Z,2.37
2018-05-15T11:09:10.727Z,2.73
2018-05-15T11:11:38.338Z,2.63
2018-05-15T11:14:05.954Z,2.70
2018-05-15T11:16:33.678Z,2.90
2018-05-15T11:19:13.190Z,3.07
2018-05-15T11:21:52.601Z,2.60
2018-05-15T11:24:32.090Z,2.90
2018-05-15T11:26:59.657Z,2.67
2018-05-15T11:29:27.262Z,2.87
2018-05-15T11:31:54.882Z,2.70
2018-05-15T11:34:22.479Z,2.90
2018-05-15T11:36:50.059Z,2.87
2018-05-15T11:39:18.397Z,2.90
2018-05-15T11:41:46.129Z,2.67
2018-05-15T11:44:13.696Z,2.80
2018-05-15T11:46:41.304Z,2.47
2018-05-15T11:49:09.506Z,2.70
2018-05-15T11:51:38.124Z,2.80
2018-05-15T11:54:04.832Z,2.60
2018-05-15T11:56:32.521Z,2.70
2018-05-15T11:59:00.113Z,2.50
2018-05-15T12:01:27.832Z,2.97
2018-05-15T12:03:55.500Z,2.70
2018-05-15T12:06:23.092Z,2.77
2018-05-15T12:08:50.704Z,3.93
2018-05-15T12:11:18.296Z,3.50
2018-05-15T12:13:45.862Z,3.27
2018-05-15T12:16:13.565Z,3.50
2018-05-15T12:18:41.174Z,4.40
2018-05-15T12:21:08.917Z,4.00
2018-05-15T12:23:37.266Z,4.00
2018-05-15T12:26:04.901Z,4.17
2018-05-15T12:28:32.552Z,4.32
2018-05-15T12:31:00.132Z,4.07
2018-05-15T12:33:27.782Z,4.17
2018-05-15T12:35:55.429Z,5.57
2018-05-15T12:38:23.741Z,5.40
2018-05-15T12:40:51.311Z,4.60
2018-05-15T12:43:19.704Z,4.77
2018-05-15T12:45:48.061Z,4.20
2018-05-15T12:48:15.676Z,4.47
2018-05-15T12:50:43.260Z,4.50
2018-05-15T12:53:10.906Z,4.63
2018-05-15T12:55:38.533Z,5.67
2018-05-15T12:58:06.162Z,5.30
2018-05-15T13:00:33.731Z,5.50
2018-05-15T13:03:01.340Z,5.00
2018-05-15T13:05:29.063Z,4.70
2018-05-15T13:07:56.640Z,4.83
2018-05-15T13:10:24.216Z,5.07
2018-05-15T13:12:51.797Z,5.20
2018-05-15T13:15:19.422Z,4.50
2018-05-15T13:17:47.034Z,4.50
2018-05-15T13:20:14.648Z,4.63
2018-05-15T13:22:42.236Z,4.40
2018-05-15T13:25:10.090Z,4.50
2018-05-15T13:27:37.712Z,4.50
2018-05-15T13:30:06.090Z,3.90
2018-05-15T13:32:34.461Z,4.13
2018-05-15T13:35:02.070Z,4.47
2018-05-15T13:37:31.742Z,4.00
2018-05-15T13:39:59.389Z,4.50
2018-05-15T13:42:27.005Z,4.03
2018-05-15T13:44:54.598Z,4.30
2018-05-15T13:47:22.274Z,4.10
2018-05-15T13:49:50.104Z,4.17
2018-05-15T13:52:17.660Z,4.50
2018-05-15T13:54:45.284Z,4.30
2018-05-15T13:57:12.928Z,3.97
2018-05-15T13:59:41.310Z,4.00
2018-05-15T14:02:09.700Z,3.77
2018-05-15T14:04:38.078Z,3.67
2018-05-15T14:07:06.474Z,4.10
2018-05-15T14:09:34.153Z,3.53
2018-05-15T14:12:01.790Z,3.50
2018-05-15T14:14:29.366Z,3.30
2018-05-15T14:16:56.984Z,3.27
2018-05-15T14:19:25.396Z,3.20
2018-05-15T14:21:53.024Z,2.80
2018-05-15T14:24:20.631Z,3.07
2018-05-15T14:26:48.206Z,3.07
2018-05-15T14:29:15.819Z,3.27
2018-05-15T14:31:44.170Z,3.03
2018-05-15T14:34:11.837Z,2.80
2018-05-15T14:36:39.460Z,3.00
2018-05-15T14:39:07.035Z,2.70
2018-05-15T14:41:46.619Z,2.97
2018-05-15T14:44:15.188Z,2.83
2018-05-15T14:46:43.589Z,2.43
2018-05-15T14:49:11.169Z,2.50
2018-05-15T14:51:38.748Z,2.43
2018-05-15T14:54:06.378Z,2.40
2018-05-15T14:56:33.976Z,2.30
2018-05-15T14:59:01.630Z,2.33
2018-05-15T15:01:29.230Z,2.10
2018-05-15T15:03:56.808Z,2.40
2018-05-15T15:06:24.433Z,2.33
2018-05-15T15:08:52.262Z,2.08
2018-05-15T15:11:19.878Z,2.20
2018-05-15T15:13:48.274Z,2.30
2018-05-15T15:16:16.676Z,2.33
2018-05-15T15:18:44.292Z,2.90
2018-05-15T15:21:11.894Z,3.17
2018-05-15T15:23:39.529Z,3.10
2018-05-15T15:26:08.066Z,2.97
2018-05-15T15:28:36.629Z,2.80
2018-05-15T15:31:04.249Z,2.60
2018-05-15T15:33:31.842Z,2.90
2018-05-15T15:35:59.464Z,2.87
2018-05-15T15:38:27.108Z,2.80
2018-05-15T15:40:59.453Z,2.70
2018-05-15T15:43:27.088Z,2.67
2018-05-15T15:45:54.688Z,2.50
2018-05-15T15:48:22.551Z,2.53
2018-05-15T15:50:50.164Z,2.30
2018-05-15T15:53:18.548Z,1.90
2018-05-15T15:55:46.963Z,2.40
2018-05-15T15:58:14.587Z,2.50
2018-05-15T16:00:42.960Z,2.50
2018-05-15T16:03:11.324Z,2.30
2018-05-15T16:05:38.918Z,2.40
2018-05-15T16:08:06.556Z,2.10
2018-05-15T16:10:34.942Z,2.10
2018-05-15T16:13:03.327Z,1.90
2018-05-15T16:15:31.794Z,1.90
2018-05-15T16:18:02.826Z,2.00
2018-05-15T16:20:30.402Z,2.10
2018-05-15T16:22:58.770Z,2.27
2018-05-15T16:25:34.884Z,2.23
2018-05-15T16:28:02.469Z,2.20
2018-05-15T16:30:30.064Z,2.40
2018-05-15T16:32:58.489Z,2.60
2018-05-15T16:35:26.136Z,3.00
2018-05-15T16:37:53.788Z,2.80
2018-05-15T16:40:21.382Z,2.70
2018-05-15T16:43:01.858Z,2.90
2018-05-15T16:45:29.494Z,3.30
2018-05-15T16:48:00.166Z,3.37
2018-05-15T16:50:27.778Z,3.77
2018-05-15T16:52:55.358Z,4.07
2018-05-15T16:55:22.978Z,4.13
2018-05-15T16:57:50.566Z,4.10
2018-05-15T17:00:18.168Z,4.10
2018-05-15T17:02:45.768Z,3.90
2018-05-15T17:05:13.368Z,4.50
2018-05-15T17:07:40.984Z,4.07
2018-05-15T17:10:08.590Z,4.30
2018-05-15T17:12:48.748Z,3.70
2018-05-15T17:15:16.494Z,3.90
2018-05-15T17:17:44.154Z,3.67
2018-05-15T17:20:11.779Z,3.43
2018-05-15T17:22:39.625Z,3.10
2018-05-15T17:25:08.004Z,3.10
2018-05-15T17:27:46.489Z,3.07
2018-05-15T17:30:14.102Z,2.90
2018-05-15T17:32:41.722Z,3.17
2018-05-15T17:35:09.489Z,3.10
2018-05-15T17:37:38.089Z,3.23
2018-05-15T17:40:06.478Z,3.00
2018-05-15T17:42:34.873Z,2.97
2018-05-15T17:45:02.564Z,3.00
2018-05-15T17:47:30.239Z,2.90
2018-05-15T17:49:57.873Z,3.20
2018-05-15T17:52:25.466Z,2.77
2018-05-15T17:54:53.092Z,3.00
2018-05-15T17:57:20.692Z,3.20
2018-05-15T17:59:48.368Z,2.70
2018-05-15T18:02:16.108Z,3.10
2018-05-15T18:04:43.688Z,3.20
2018-05-15T18:07:11.303Z,3.03
2018-05-15T18:09:38.894Z,3.10
2018-05-15T18:12:06.486Z,3.30
2018-05-15T18:14:34.881Z,3.30
2018-05-15T18:17:02.485Z,3.20
2018-05-15T18:19:30.155Z,3.33
2018-05-15T18:21:57.795Z,3.77
2018-05-15T18:24:25.383Z,4.03
2018-05-15T18:26:53.031Z,3.73
2018-05-15T18:29:20.669Z,4.12
2018-05-15T18:31:48.274Z,4.17
2018-05-15T18:34:15.866Z,3.93
2018-05-15T18:36:44.256Z,4.47
2018-05-15T18:39:11.965Z,4.07
2018-05-15T18:41:39.560Z,4.40
2018-05-15T18:44:07.943Z,4.77
2018-05-15T18:46:36.320Z,4.20
2018-05-15T18:49:03.986Z,4.90
2018-05-15T18:51:32.402Z,4.40
2018-05-15T18:54:00.025Z,4.57
2018-05-15T18:56:28.341Z,4.73
2018-05-15T18:58:55.996Z,5.20
2018-05-15T19:01:23.602Z,5.27
2018-05-15T19:03:51.238Z,5.80
2018-05-15T19:06:18.892Z,5.80
2018-05-15T19:08:46.506Z,5.73
2018-05-15T19:11:19.740Z,5.57
2018-05-15T19:13:47.455Z,5.73
2018-05-15T19:16:15.052Z,5.57
2018-05-15T19:18:42.641Z,5.47
2018-05-15T19:21:10.264Z,5.60
2018-05-15T19:23:37.893Z,5.80
2018-05-15T19:26:05.601Z,6.00
2018-05-15T19:28:33.221Z,5.77
2018-05-15T19:31:01.609Z,6.40
2018-05-15T19:33:34.861Z,6.30
2018-05-15T19:36:08.299Z,5.43
2018-05-15T19:38:36.665Z,5.80
2018-05-15T19:41:07.154Z,5.40
2018-05-15T19:43:34.799Z,6.03
2018-05-15T19:46:02.462Z,5.77
2018-05-15T19:48:30.099Z,6.17
2018-05-15T19:50:58.505Z,5.47
2018-05-15T19:53:26.177Z,5.93
2018-05-15T19:55:53.869Z,6.07
2018-05-15T19:58:21.713Z,5.90
2018-05-15T20:00:49.308Z,6.68
2018-05-15T20:03:16.921Z,6.10
2018-05-15T20:05:46.479Z,6.17
2018-05-15T20:08:15.137Z,5.97
2018-05-15T20:10:42.717Z,6.20
2018-05-15T20:13:10.391Z,6.07
2018-05-15T20:15:38.141Z,6.03
2018-05-15T20:18:05.743Z,5.50
2018-05-15T20:20:33.637Z,5.57
2018-05-15T20:23:01.451Z,5.93
2018-05-15T20:25:31.769Z,5.57
2018-05-15T20:27:59.385Z,5.20
2018-05-15T20:30:30.373Z,5.67
2018-05-15T20:33:03.189Z,6.50
2018-05-15T20:35:30.807Z,6.03
2018-05-15T20:37:58.649Z,5.97
2018-05-15T20:40:26.302Z,5.60
2018-05-15T20:42:53.919Z,5.40
2018-05-15T20:45:22.343Z,5.87
2018-05-15T20:47:49.945Z,5.70
2018-05-15T20:50:17.639Z,5.83
2018-05-15T20:52:45.245Z,5.70
2018-05-15T20:55:12.902Z,5.37
2018-05-15T20:57:45.621Z,5.60
2018-05-15T21:00:13.275Z,6.10
2018-05-15T21:02:41.675Z,5.37
2018-05-15T21:05:09.277Z,5.63
2018-05-15T21:07:57.726Z,5.40
2018-05-15T21:10:25.296Z,5.43
2018-05-15T21:12:52.898Z,5.30
2018-05-15T21:15:20.506Z,5.83
2018-05-15T21:17:48.107Z,5.73
2018-05-15T21:20:16.511Z,5.60
2018-05-15T21:22:44.123Z,5.90
2018-05-15T21:25:17.313Z,5.37
2018-05-15T21:27:44.965Z,5.60
2018-05-15T21:30:12.521Z,5.30
2018-05-15T21:32:40.088Z,5.37
2018-05-15T21:35:07.731Z,5.90
2018-05-15T21:37:35.341Z,5.47
2018-05-15T21:40:09.749Z,5.35
2018-05-15T21:42:38.874Z,5.40
2018-05-15T21:45:07.288Z,5.60
2018-05-15T21:47:34.872Z,5.40
2018-05-15T21:50:02.483Z,5.45
2018-05-15T21:52:40.371Z,6.00
2018-05-15T21:55:08.785Z,5.73
2018-05-15T21:57:36.387Z,5.67
2018-05-15T22:00:04.750Z,5.73
2018-05-15T22:02:32.364Z,5.63
2018-05-15T22:04:59.985Z,5.97
2018-05-15T22:07:27.589Z,5.93
2018-05-15T22:09:55.233Z,5.47
2018-05-15T22:12:35.534Z,5.97
2018-05-15T22:15:15.074Z,5.93
2018-05-15T22:17:54.482Z,5.70
2018-05-15T22:20:34.180Z,5.60
2018-05-15T22:23:01.211Z,5.90
2018-05-15T22:25:28.844Z,5.50
2018-05-15T22:27:56.470Z,5.90
2018-05-15T22:30:24.830Z,6.23
2018-05-15T22:32:52.417Z,5.37
2018-05-15T22:38:15.076Z,5.20
2018-05-15T22:40:43.472Z,5.70
2018-05-15T22:43:11.078Z,5.63
2018-05-15T22:45:38.709Z,5.63
2018-05-15T22:48:06.315Z,5.20
2018-05-15T22:50:33.950Z,5.63
2018-05-15T22:53:01.593Z,5.63
2018-05-15T22:55:29.169Z,5.77
2018-05-15T22:57:56.808Z,6.07
2018-05-15T23:00:24.422Z,5.73
2018-05-15T23:02:52.789Z,5.53
2018-05-15T23:05:20.393Z,5.43
2018-05-15T23:07:48.760Z,5.50
2018-05-15T23:10:17.112Z,6.47
2018-05-15T23:12:44.722Z,5.43
2018-05-15T23:15:12.356Z,5.77
2018-05-15T23:17:40.082Z,5.77
2018-05-15T23:20:07.646Z,6.13
2018-05-15T23:22:44.180Z,6.40
2018-05-15T23:25:11.806Z,5.37
2018-05-15T23:27:39.431Z,5.43
2018-05-15T23:30:07.062Z,5.70
2018-05-15T23:32:34.682Z,5.57
2018-05-15T23:35:02.316Z,5.10
2018-05-15T23:37:29.912Z,5.73
2018-05-15T23:39:58.927Z,5.67
2018-05-15T23:42:26.570Z,6.23
2018-05-15T23:44:54.932Z,5.73
2018-05-15T23:47:22.534Z,5.60
2018-05-15T23:49:50.160Z,6.00
2018-05-15T23:52:19.258Z,6.50
2018-05-15T23:54:46.900Z,6.03
2018-05-15T23:57:14.541Z,6.10
2018-05-15T23:59:42.153Z,6.50
